Terminal Aerodrome Forecast
Issued by NWS New Orleans/Baton Rouge, LA

Home | Current Version | Previous Version | Text Only | Print | Product List | Glossary On
Versions: 1 2 3 4 5 6 7 8 9 10 11 12 13 14 15 16 17 18
000
FTUS44 KLIX 212300 RRA
TAFBTR
TAF
KBTR 212340Z 2200/2224 00000KT P6SM BKN100
     FM220500 14005KT P6SM BKN015
     FM220700 15005KT P6SM BKN010
      TEMPO 2209/2213 3SM BR BKN003
     FM221600 20006KT P6SM BKN025=

USA.gov is the U.S. government's official web portal to all federal, state and local government web resources and services.